sensor_id;sensor_type;location;lat;lon;timestamp;pressure;altitude;pressure_sealevel;temperature;humidity
56992;BME280;42885;49.754;18.636;2023-10-13T00:00:35;98359.61;;;19.72;100.00
56992;BME280;42885;49.754;18.636;2023-10-13T00:03:11;98355.50;;;20.46;100.00
56992;BME280;42885;49.754;18.636;2023-10-13T00:05:45;98350.38;;;19.76;100.00
56992;BME280;42885;49.754;18.636;2023-10-13T00:08:16;98347.53;;;19.73;100.00
56992;BME280;42885;49.754;18.636;2023-10-13T00:10:47;98349.76;;;19.64;100.00
56992;BME280;42885;49.754;18.636;2023-10-13T00:13:18;98344.11;;;19.81;100.00
56992;BME280;42885;49.754;18.636;2023-10-13T00:15:49;98345.58;;;19.93;100.00
56992;BME280;42885;49.754;18.636;2023-10-13T00:18:32;98343.85;;;19.88;100.00
56992;BME280;42885;49.754;18.636;2023-10-13T00:21:03;98352.61;;;19.85;100.00
56992;BME280;42885;49.754;18.636;2023-10-13T00:23:36;98356.56;;;19.80;100.00
56992;BME280;42885;49.754;18.636;2023-10-13T00:26:07;98358.94;;;19.88;100.00
56992;BME280;42885;49.754;18.636;2023-10-13T00:28:39;98354.67;;;19.91;100.00
56992;BME280;42885;49.754;18.636;2023-10-13T00:31:16;98357.53;;;19.93;100.00
56992;BME280;42885;49.754;18.636;2023-10-13T00:33:47;98352.67;;;19.75;100.00
56992;BME280;42885;49.754;18.636;2023-10-13T00:36:19;98355.95;;;19.87;100.00
56992;BME280;42885;49.754;18.636;2023-10-13T00:38:50;98351.96;;;19.87;100.00
56992;BME280;42885;49.754;18.636;2023-10-13T00:41:22;98356.51;;;19.76;100.00
56992;BME280;42885;49.754;18.636;2023-10-13T00:43:54;98349.23;;;20.11;100.00
56992;BME280;42885;49.754;18.636;2023-10-13T00:46:36;98340.52;;;19.86;100.00
56992;BME280;42885;49.754;18.636;2023-10-13T00:49:08;98341.34;;;19.69;100.00
56992;BME280;42885;49.754;18.636;2023-10-13T00:51:39;98332.32;;;19.47;100.00
56992;BME280;42885;49.754;18.636;2023-10-13T00:54:15;98326.45;;;19.58;100.00
56992;BME280;42885;49.754;18.636;2023-10-13T00:56:48;98332.01;;;19.50;100.00
56992;BME280;42885;49.754;18.636;2023-10-13T00:59:21;98334.11;;;19.61;100.00
56992;BME280;42885;49.754;18.636;2023-10-13T01:01:53;98329.25;;;19.56;100.00
56992;BME280;42885;49.754;18.636;2023-10-13T01:04:25;98324.92;;;19.55;100.00
56992;BME280;42885;49.754;18.636;2023-10-13T01:06:57;98335.24;;;19.72;100.00
56992;BME280;42885;49.754;18.636;2023-10-13T01:09:29;98331.52;;;19.65;100.00
56992;BME280;42885;49.754;18.636;2023-10-13T01:12:01;98336.82;;;19.65;100.00
56992;BME280;42885;49.754;18.636;2023-10-13T01:14:32;98339.30;;;19.48;100.00
56992;BME280;42885;49.754;18.636;2023-10-13T01:17:05;98333.24;;;19.42;100.00
56992;BME280;42885;49.754;18.636;2023-10-13T01:19:38;98338.08;;;20.25;100.00
56992;BME280;42885;49.754;18.636;2023-10-13T01:22:11;98325.43;;;19.26;100.00
56992;BME280;42885;49.754;18.636;2023-10-13T01:24:42;98329.98;;;19.20;100.00
56992;BME280;42885;49.754;18.636;2023-10-13T01:27:14;98344.81;;;19.13;100.00
56992;BME280;42885;49.754;18.636;2023-10-13T01:29:47;98327.34;;;19.20;100.00
56992;BME280;42885;49.754;18.636;2023-10-13T01:32:22;98321.55;;;19.21;100.00
56992;BME280;42885;49.754;18.636;2023-10-13T01:34:55;98339.47;;;19.09;100.00
56992;BME280;42885;49.754;18.636;2023-10-13T01:37:27;98334.61;;;19.18;100.00
56992;BME280;42885;49.754;18.636;2023-10-13T01:39:58;98345.89;;;18.96;100.00
56992;BME280;42885;49.754;18.636;2023-10-13T01:42:28;98348.08;;;19.07;100.00
56992;BME280;42885;49.754;18.636;2023-10-13T01:45:00;98335.63;;;19.21;100.00
56992;BME280;42885;49.754;18.636;2023-10-13T01:47:33;98337.88;;;19.26;100.00
56992;BME280;42885;49.754;18.636;2023-10-13T01:50:04;98340.73;;;19.43;100.00
56992;BME280;42885;49.754;18.636;2023-10-13T01:52:36;98361.31;;;19.31;100.00
56992;BME280;42885;49.754;18.636;2023-10-13T01:55:08;98348.66;;;19.29;100.00
56992;BME280;42885;49.754;18.636;2023-10-13T01:57:40;98348.28;;;19.09;100.00
56992;BME280;42885;49.754;18.636;2023-10-13T02:00:14;98328.85;;;19.83;100.00
56992;BME280;42885;49.754;18.636;2023-10-13T02:02:51;98313.79;;;19.88;100.00
56992;BME280;42885;49.754;18.636;2023-10-13T02:05:22;98310.89;;;19.45;100.00
56992;BME280;42885;49.754;18.636;2023-10-13T02:07:54;98324.75;;;19.01;100.00
56992;BME280;42885;49.754;18.636;2023-10-13T02:10:27;98322.34;;;19.17;100.00
56992;BME280;42885;49.754;18.636;2023-10-13T02:13:00;98327.30;;;19.16;100.00
56992;BME280;42885;49.754;18.636;2023-10-13T02:15:32;98334.03;;;19.24;100.00
56992;BME280;42885;49.754;18.636;2023-10-13T02:18:04;98336.14;;;19.21;100.00
56992;BME280;42885;49.754;18.636;2023-10-13T02:20:36;98334.34;;;19.35;100.00
56992;BME280;42885;49.754;18.636;2023-10-13T02:23:09;98335.56;;;19.27;100.00
56992;BME280;42885;49.754;18.636;2023-10-13T02:25:43;98339.41;;;19.61;100.00
56992;BME280;42885;49.754;18.636;2023-10-13T02:28:15;98339.41;;;19.61;100.00
56992;BME280;42885;49.754;18.636;2023-10-13T02:30:48;98341.00;;;19.67;100.00
56992;BME280;42885;49.754;18.636;2023-10-13T02:33:21;98331.85;;;19.38;100.00
56992;BME280;42885;49.754;18.636;2023-10-13T02:35:51;98331.85;;;19.38;100.00
56992;BME280;42885;49.754;18.636;2023-10-13T02:38:27;98347.50;;;19.27;100.00
56992;BME280;42885;49.754;18.636;2023-10-13T02:40:59;98346.66;;;19.26;100.00
56992;BME280;42885;49.754;18.636;2023-10-13T02:43:34;98352.70;;;19.19;100.00
56992;BME280;42885;49.754;18.636;2023-10-13T02:46:06;98351.61;;;19.11;100.00
56992;BME280;42885;49.754;18.636;2023-10-13T02:48:37;98342.91;;;19.05;100.00
56992;BME280;42885;49.754;18.636;2023-10-13T02:51:09;98341.23;;;19.04;100.00
56992;BME280;42885;49.754;18.636;2023-10-13T02:53:46;98340.66;;;19.10;100.00
56992;BME280;42885;49.754;18.636;2023-10-13T02:56:18;98334.27;;;19.17;100.00
56992;BME280;42885;49.754;18.636;2023-10-13T02:58:53;98328.18;;;19.35;100.00
56992;BME280;42885;49.754;18.636;2023-10-13T03:01:25;98334.57;;;19.42;100.00
56992;BME280;42885;49.754;18.636;2023-10-13T03:04:03;98331.92;;;19.28;100.00
56992;BME280;42885;49.754;18.636;2023-10-13T03:06:36;98320.77;;;19.38;100.00
56992;BME280;42885;49.754;18.636;2023-10-13T03:09:10;98320.05;;;19.08;100.00
56992;BME280;42885;49.754;18.636;2023-10-13T03:11:45;98334.91;;;19.01;100.00
56992;BME280;42885;49.754;18.636;2023-10-13T03:14:21;98334.47;;;18.96;100.00
56992;BME280;42885;49.754;18.636;2023-10-13T03:17:03;98339.61;;;19.07;100.00
56992;BME280;42885;49.754;18.636;2023-10-13T03:19:43;98327.98;;;19.18;100.00
56992;BME280;42885;49.754;18.636;2023-10-13T03:22:16;98336.92;;;19.17;100.00
56992;BME280;42885;49.754;18.636;2023-10-13T03:24:47;98341.48;;;19.11;100.00
56992;BME280;42885;49.754;18.636;2023-10-13T03:27:19;98343.38;;;19.05;100.00
56992;BME280;42885;49.754;18.636;2023-10-13T03:29:54;98336.14;;;19.07;100.00
56992;BME280;42885;49.754;18.636;2023-10-13T03:32:25;98339.58;;;19.17;100.00
56992;BME280;42885;49.754;18.636;2023-10-13T03:34:58;98336.34;;;19.23;100.00
56992;BME280;42885;49.754;18.636;2023-10-13T03:37:33;98331.63;;;19.17;100.00
56992;BME280;42885;49.754;18.636;2023-10-13T03:40:11;98324.80;;;19.43;100.00
56992;BME280;42885;49.754;18.636;2023-10-13T03:42:58;98327.35;;;19.48;100.00
56992;BME280;42885;49.754;18.636;2023-10-13T03:45:41;98318.38;;;19.63;100.00
56992;BME280;42885;49.754;18.636;2023-10-13T03:48:14;98319.44;;;19.38;100.00
56992;BME280;42885;49.754;18.636;2023-10-13T03:50:58;98320.27;;;19.53;100.00
56992;BME280;42885;49.754;18.636;2023-10-13T03:53:43;98328.55;;;19.68;100.00
56992;BME280;42885;49.754;18.636;2023-10-13T03:56:24;98323.58;;;19.69;100.00
56992;BME280;42885;49.754;18.636;2023-10-13T03:59:00;98325.47;;;19.59;100.00
56992;BME280;42885;49.754;18.636;2023-10-13T04:01:33;98320.06;;;19.50;100.00
56992;BME280;42885;49.754;18.636;2023-10-13T04:04:16;98323.83;;;19.62;100.00
56992;BME280;42885;49.754;18.636;2023-10-13T04:07:04;98324.53;;;19.64;100.00
56992;BME280;42885;49.754;18.636;2023-10-13T04:09:36;98318.58;;;19.66;100.00
56992;BME280;42885;49.754;18.636;2023-10-13T04:12:09;98317.61;;;20.44;100.00
56992;BME280;42885;49.754;18.636;2023-10-13T04:14:44;98317.11;;;19.67;100.00
56992;BME280;42885;49.754;18.636;2023-10-13T04:17:32;98316.72;;;19.62;100.00
56992;BME280;42885;49.754;18.636;2023-10-13T04:20:14;98312.98;;;19.55;100.00
56992;BME280;42885;49.754;18.636;2023-10-13T04:22:46;98306.12;;;19.48;100.00
56992;BME280;42885;49.754;18.636;2023-10-13T04:25:26;98308.23;;;19.45;100.00
56992;BME280;42885;49.754;18.636;2023-10-13T04:28:15;98313.65;;;19.39;100.00
56992;BME280;42885;49.754;18.636;2023-10-13T04:30:52;98312.46;;;19.37;100.00
56992;BME280;42885;49.754;18.636;2023-10-13T04:33:28;98313.58;;;19.49;100.00
56992;BME280;42885;49.754;18.636;2023-10-13T04:36:11;98313.45;;;19.22;100.00
56992;BME280;42885;49.754;18.636;2023-10-13T04:38:44;98320.12;;;19.26;100.00
56992;BME280;42885;49.754;18.636;2023-10-13T04:41:36;98321.41;;;19.36;100.00
56992;BME280;42885;49.754;18.636;2023-10-13T04:44:16;98318.60;;;19.52;100.00
56992;BME280;42885;49.754;18.636;2023-10-13T04:47:05;98323.40;;;19.52;100.00
56992;BME280;42885;49.754;18.636;2023-10-13T04:49:40;98328.06;;;19.54;100.00
56992;BME280;42885;49.754;18.636;2023-10-13T04:52:16;98325.53;;;19.35;100.00
56992;BME280;42885;49.754;18.636;2023-10-13T04:55:06;98332.50;;;19.36;100.00
56992;BME280;42885;49.754;18.636;2023-10-13T04:57:42;98326.30;;;19.45;100.00
56992;BME280;42885;49.754;18.636;2023-10-13T05:00:17;98334.17;;;19.37;100.00
56992;BME280;42885;49.754;18.636;2023-10-13T05:02:49;98331.44;;;19.43;100.00
56992;BME280;42885;49.754;18.636;2023-10-13T05:05:36;98334.78;;;19.31;100.00
56992;BME280;42885;49.754;18.636;2023-10-13T05:08:17;98339.22;;;19.72;100.00
56992;BME280;42885;49.754;18.636;2023-10-13T05:11:06;98342.18;;;19.55;100.00
56992;BME280;42885;49.754;18.636;2023-10-13T05:13:54;98340.90;;;19.45;100.00
56992;BME280;42885;49.754;18.636;2023-10-13T05:16:43;98341.16;;;19.52;100.00
56992;BME280;42885;49.754;18.636;2023-10-13T05:19:31;98339.84;;;19.70;100.00
56992;BME280;42885;49.754;18.636;2023-10-13T05:22:19;98355.52;;;19.59;100.00
56992;BME280;42885;49.754;18.636;2023-10-13T05:25:08;98355.70;;;19.48;100.00
56992;BME280;42885;49.754;18.636;2023-10-13T05:27:56;98355.45;;;19.55;100.00
56992;BME280;42885;49.754;18.636;2023-10-13T05:30:45;98347.78;;;19.66;100.00
56992;BME280;42885;49.754;18.636;2023-10-13T05:33:34;98362.32;;;19.62;100.00
56992;BME280;42885;49.754;18.636;2023-10-13T05:36:22;98356.67;;;19.61;100.00
56992;BME280;42885;49.754;18.636;2023-10-13T05:39:11;98353.34;;;19.59;100.00
56992;BME280;42885;49.754;18.636;2023-10-13T05:41:59;98357.50;;;19.75;100.00
56992;BME280;42885;49.754;18.636;2023-10-13T05:44:48;98356.84;;;19.77;100.00
56992;BME280;42885;49.754;18.636;2023-10-13T05:47:39;98353.80;;;19.86;100.00
56992;BME280;42885;49.754;18.636;2023-10-13T05:50:14;98360.41;;;19.68;100.00
56992;BME280;42885;49.754;18.636;2023-10-13T05:52:52;98360.83;;;19.77;100.00
56992;BME280;42885;49.754;18.636;2023-10-13T05:55:29;98361.11;;;19.88;100.00
56992;BME280;42885;49.754;18.636;2023-10-13T05:58:17;98357.90;;;19.94;100.00
56992;BME280;42885;49.754;18.636;2023-10-13T06:01:06;98359.12;;;20.04;100.00
56992;BME280;42885;49.754;18.636;2023-10-13T06:03:56;98364.28;;;20.02;100.00
56992;BME280;42885;49.754;18.636;2023-10-13T06:06:46;98361.65;;;19.92;100.00
56992;BME280;42885;49.754;18.636;2023-10-13T06:09:34;98371.40;;;20.01;100.00
56992;BME280;42885;49.754;18.636;2023-10-13T06:12:23;98370.15;;;20.10;100.00
56992;BME280;42885;49.754;18.636;2023-10-13T06:15:12;98371.26;;;20.03;100.00
56992;BME280;42885;49.754;18.636;2023-10-13T06:18:00;98374.47;;;20.11;100.00
56992;BME280;42885;49.754;18.636;2023-10-13T06:20:49;98380.45;;;20.13;100.00
56992;BME280;42885;49.754;18.636;2023-10-13T06:23:37;98375.16;;;19.94;100.00
56992;BME280;42885;49.754;18.636;2023-10-13T06:26:25;98382.00;;;19.97;100.00
56992;BME280;42885;49.754;18.636;2023-10-13T06:29:14;98381.69;;;20.00;100.00
56992;BME280;42885;49.754;18.636;2023-10-13T06:31:46;98377.59;;;19.92;100.00
56992;BME280;42885;49.754;18.636;2023-10-13T06:34:18;98381.42;;;20.07;100.00
56992;BME280;42885;49.754;18.636;2023-10-13T06:36:50;98391.59;;;20.12;100.00
56992;BME280;42885;49.754;18.636;2023-10-13T06:39:23;98386.80;;;19.98;100.00
56992;BME280;42885;49.754;18.636;2023-10-13T06:42:05;98392.16;;;20.20;100.00
56992;BME280;42885;49.754;18.636;2023-10-13T06:44:36;98387.52;;;20.40;100.00
56992;BME280;42885;49.754;18.636;2023-10-13T06:47:09;98394.16;;;20.58;100.00
56992;BME280;42885;49.754;18.636;2023-10-13T06:49:40;98396.55;;;20.70;100.00
56992;BME280;42885;49.754;18.636;2023-10-13T06:52:13;98393.01;;;20.39;100.00
56992;BME280;42885;49.754;18.636;2023-10-13T06:54:45;98391.22;;;20.25;100.00
56992;BME280;42885;49.754;18.636;2023-10-13T06:57:17;98393.09;;;20.51;100.00
56992;BME280;42885;49.754;18.636;2023-10-13T06:59:50;98398.73;;;20.48;100.00
56992;BME280;42885;49.754;18.636;2023-10-13T07:02:22;98401.19;;;20.63;100.00
56992;BME280;42885;49.754;18.636;2023-10-13T07:04:55;98399.45;;;20.76;100.00
56992;BME280;42885;49.754;18.636;2023-10-13T07:07:30;98394.31;;;21.36;100.00
56992;BME280;42885;49.754;18.636;2023-10-13T07:10:02;98391.09;;;21.55;100.00
56992;BME280;42885;49.754;18.636;2023-10-13T07:12:34;98396.56;;;21.53;100.00
56992;BME280;42885;49.754;18.636;2023-10-13T07:15:07;98400.67;;;21.39;100.00
56992;BME280;42885;49.754;18.636;2023-10-13T07:17:42;98395.75;;;21.61;100.00
56992;BME280;42885;49.754;18.636;2023-10-13T07:20:14;98403.68;;;21.75;100.00
56992;BME280;42885;49.754;18.636;2023-10-13T07:22:47;98404.83;;;21.77;100.00
56992;BME280;42885;49.754;18.636;2023-10-13T07:25:19;98404.67;;;21.39;100.00
56992;BME280;42885;49.754;18.636;2023-10-13T07:27:52;98400.86;;;21.46;100.00
56992;BME280;42885;49.754;18.636;2023-10-13T07:30:24;98398.08;;;21.56;100.00
56992;BME280;42885;49.754;18.636;2023-10-13T07:32:59;98407.25;;;21.66;100.00
56992;BME280;42885;49.754;18.636;2023-10-13T07:35:30;98398.36;;;21.75;100.00
56992;BME280;42885;49.754;18.636;2023-10-13T07:38:03;98404.41;;;21.55;100.00
56992;BME280;42885;49.754;18.636;2023-10-13T07:40:35;98407.73;;;21.57;100.00
56992;BME280;42885;49.754;18.636;2023-10-13T07:43:08;98395.86;;;21.86;100.00
56992;BME280;42885;49.754;18.636;2023-10-13T07:45:40;98394.71;;;21.89;100.00
56992;BME280;42885;49.754;18.636;2023-10-13T07:48:11;98390.56;;;21.90;100.00
56992;BME280;42885;49.754;18.636;2023-10-13T07:50:44;98394.05;;;21.99;100.00
56992;BME280;42885;49.754;18.636;2023-10-13T07:53:15;98391.91;;;22.03;100.00
56992;BME280;42885;49.754;18.636;2023-10-13T07:55:50;98388.61;;;22.34;100.00
56992;BME280;42885;49.754;18.636;2023-10-13T07:58:29;98383.98;;;22.52;100.00
56992;BME280;42885;49.754;18.636;2023-10-13T08:01:02;98387.64;;;22.51;100.00
56992;BME280;42885;49.754;18.636;2023-10-13T08:03:37;98390.97;;;22.70;100.00
56992;BME280;42885;49.754;18.636;2023-10-13T08:06:18;98392.97;;;22.68;100.00
56992;BME280;42885;49.754;18.636;2023-10-13T08:08:49;98394.78;;;22.88;100.00
56992;BME280;42885;49.754;18.636;2023-10-13T08:11:27;98396.62;;;22.83;100.00
56992;BME280;42885;49.754;18.636;2023-10-13T08:14:01;98400.31;;;22.66;100.00
56992;BME280;42885;49.754;18.636;2023-10-13T08:16:50;98391.98;;;22.73;96.90
56992;BME280;42885;49.754;18.636;2023-10-13T08:19:30;98403.95;;;22.86;100.00
56992;BME280;42885;49.754;18.636;2023-10-13T08:22:12;98405.45;;;22.96;99.49
56992;BME280;42885;49.754;18.636;2023-10-13T08:24:51;98396.72;;;23.15;97.56
56992;BME280;42885;49.754;18.636;2023-10-13T08:27:24;98403.38;;;23.28;93.53
56992;BME280;42885;49.754;18.636;2023-10-13T08:30:06;98388.08;;;23.05;92.00
56992;BME280;42885;49.754;18.636;2023-10-13T08:32:55;98389.05;;;23.29;93.02
56992;BME280;42885;49.754;18.636;2023-10-13T08:35:27;98390.19;;;23.26;89.28
56992;BME280;42885;49.754;18.636;2023-10-13T08:38:08;98386.69;;;23.74;89.07
56992;BME280;42885;49.754;18.636;2023-10-13T08:40:58;98381.70;;;23.98;90.43
56992;BME280;42885;49.754;18.636;2023-10-13T08:43:49;98379.28;;;23.84;89.61
56992;BME280;42885;49.754;18.636;2023-10-13T08:46:21;98387.20;;;24.01;90.30
56992;BME280;42885;49.754;18.636;2023-10-13T08:48:58;98384.86;;;23.74;86.44
56992;BME280;42885;49.754;18.636;2023-10-13T08:51:41;98383.97;;;24.14;85.92
56992;BME280;42885;49.754;18.636;2023-10-13T08:54:22;98383.72;;;23.96;86.64
56992;BME280;42885;49.754;18.636;2023-10-13T08:57:07;98384.72;;;23.99;86.00
56992;BME280;42885;49.754;18.636;2023-10-13T08:59:51;98387.64;;;24.17;92.22
56992;BME280;42885;49.754;18.636;2023-10-13T09:02:25;98381.89;;;24.47;90.35
56992;BME280;42885;49.754;18.636;2023-10-13T09:05:14;98375.28;;;24.35;82.41
56992;BME280;42885;49.754;18.636;2023-10-13T09:08:03;98377.87;;;24.47;79.79
56992;BME280;42885;49.754;18.636;2023-10-13T09:10:35;98378.61;;;24.18;78.31
56992;BME280;42885;49.754;18.636;2023-10-13T09:13:08;98380.36;;;24.30;77.29
56992;BME280;42885;49.754;18.636;2023-10-13T09:15:41;98374.62;;;24.37;74.70
56992;BME280;42885;49.754;18.636;2023-10-13T09:18:25;98375.34;;;24.27;76.25
56992;BME280;42885;49.754;18.636;2023-10-13T09:21:10;98351.77;;;24.50;72.76
56992;BME280;42885;49.754;18.636;2023-10-13T09:23:57;98351.77;;;24.50;72.76
56992;BME280;42885;49.754;18.636;2023-10-13T09:26:49;98366.77;;;24.36;72.00
56992;BME280;42885;49.754;18.636;2023-10-13T09:29:22;98374.06;;;24.61;74.49
56992;BME280;42885;49.754;18.636;2023-10-13T09:32:02;98368.73;;;24.80;72.61
56992;BME280;42885;49.754;18.636;2023-10-13T09:34:33;98367.23;;;24.97;70.58
56992;BME280;42885;49.754;18.636;2023-10-13T09:37:06;98374.44;;;24.77;72.18
56992;BME280;42885;49.754;18.636;2023-10-13T09:39:38;98375.14;;;25.09;70.31
56992;BME280;42885;49.754;18.636;2023-10-13T09:42:15;98359.82;;;25.85;70.60
56992;BME280;42885;49.754;18.636;2023-10-13T09:44:48;98371.29;;;24.12;73.37
56992;BME280;42885;49.754;18.636;2023-10-13T09:47:24;98367.20;;;24.43;76.55
56992;BME280;42885;49.754;18.636;2023-10-13T09:49:59;98374.20;;;24.87;73.33
56992;BME280;42885;49.754;18.636;2023-10-13T09:52:32;98371.30;;;25.08;72.92
56992;BME280;42885;49.754;18.636;2023-10-13T09:55:10;98370.98;;;25.52;67.52
56992;BME280;42885;49.754;18.636;2023-10-13T09:57:43;98381.62;;;25.11;67.74
56992;BME280;42885;49.754;18.636;2023-10-13T10:00:20;98383.67;;;25.39;71.20
56992;BME280;42885;49.754;18.636;2023-10-13T10:02:58;98391.16;;;25.59;66.73
56992;BME280;42885;49.754;18.636;2023-10-13T10:05:31;98380.33;;;26.15;64.48
56992;BME280;42885;49.754;18.636;2023-10-13T10:08:03;98377.63;;;26.69;62.68
56992;BME280;42885;49.754;18.636;2023-10-13T10:10:51;98382.09;;;25.75;65.29
56992;BME280;42885;49.754;18.636;2023-10-13T10:16:17;98371.69;;;25.61;64.96
56992;BME280;42885;49.754;18.636;2023-10-13T10:18:59;98370.11;;;25.40;63.97
56992;BME280;42885;49.754;18.636;2023-10-13T10:21:32;98372.22;;;25.45;64.61
56992;BME280;42885;49.754;18.636;2023-10-13T10:23:59;98362.84;;;25.60;66.07
56992;BME280;42885;49.754;18.636;2023-10-13T10:26:31;98362.41;;;25.67;65.28
56992;BME280;42885;49.754;18.636;2023-10-13T10:29:10;98362.70;;;25.94;64.49
56992;BME280;42885;49.754;18.636;2023-10-13T10:31:37;98354.85;;;25.82;67.40
56992;BME280;42885;49.754;18.636;2023-10-13T10:34:17;98358.78;;;25.75;64.44
56992;BME280;42885;49.754;18.636;2023-10-13T10:36:55;98349.84;;;25.79;64.38
56992;BME280;42885;49.754;18.636;2023-10-13T10:39:35;98352.52;;;25.57;65.65
56992;BME280;42885;49.754;18.636;2023-10-13T10:42:15;98341.61;;;25.69;64.71
56992;BME280;42885;49.754;18.636;2023-10-13T10:44:49;98338.00;;;26.10;63.63
56992;BME280;42885;49.754;18.636;2023-10-13T10:47:21;98333.12;;;26.24;66.27
56992;BME280;42885;49.754;18.636;2023-10-13T10:50:01;98328.30;;;26.20;62.71
56992;BME280;42885;49.754;18.636;2023-10-13T10:52:34;98336.16;;;26.72;61.36
56992;BME280;42885;49.754;18.636;2023-10-13T10:55:09;98334.22;;;27.05;61.09
56992;BME280;42885;49.754;18.636;2023-10-13T10:57:41;98329.45;;;26.72;61.46
56992;BME280;42885;49.754;18.636;2023-10-13T11:00:19;98330.70;;;26.76;60.94
56992;BME280;42885;49.754;18.636;2023-10-13T11:03:00;98332.48;;;26.90;60.14
56992;BME280;42885;49.754;18.636;2023-10-13T11:05:26;98327.98;;;26.69;61.69
56992;BME280;42885;49.754;18.636;2023-10-13T11:07:59;98324.27;;;26.42;61.88
56992;BME280;42885;49.754;18.636;2023-10-13T11:10:29;98324.55;;;26.25;62.79
56992;BME280;42885;49.754;18.636;2023-10-13T11:13:01;98327.22;;;26.64;61.31
56992;BME280;42885;49.754;18.636;2023-10-13T11:15:40;98326.49;;;26.49;62.43
56992;BME280;42885;49.754;18.636;2023-10-13T11:18:09;98331.48;;;26.19;63.50
56992;BME280;42885;49.754;18.636;2023-10-13T11:20:44;98327.09;;;26.22;63.58
56992;BME280;42885;49.754;18.636;2023-10-13T11:23:15;98335.95;;;26.01;68.68
56992;BME280;42885;49.754;18.636;2023-10-13T11:25:46;98336.51;;;25.86;62.99
56992;BME280;42885;49.754;18.636;2023-10-13T11:28:18;98325.22;;;26.12;64.89
56992;BME280;42885;49.754;18.636;2023-10-13T11:30:55;98327.13;;;25.64;62.29
56992;BME280;42885;49.754;18.636;2023-10-13T11:33:28;98326.05;;;25.91;65.69
56992;BME280;42885;49.754;18.636;2023-10-13T11:35:59;98323.94;;;25.75;64.13
56992;BME280;42885;49.754;18.636;2023-10-13T11:38:34;98324.15;;;25.74;63.23
56992;BME280;42885;49.754;18.636;2023-10-13T11:41:14;98323.66;;;26.57;62.05
56992;BME280;42885;49.754;18.636;2023-10-13T11:43:47;98320.11;;;26.68;59.62
56992;BME280;42885;49.754;18.636;2023-10-13T11:46:24;98315.36;;;26.52;60.57
56992;BME280;42885;49.754;18.636;2023-10-13T11:49:10;98304.97;;;26.53;62.15
56992;BME280;42885;49.754;18.636;2023-10-13T11:51:52;98302.92;;;26.73;63.19
56992;BME280;42885;49.754;18.636;2023-10-13T11:54:24;98295.13;;;27.20;63.37
56992;BME280;42885;49.754;18.636;2023-10-13T11:56:56;98297.27;;;27.31;59.04
56992;BME280;42885;49.754;18.636;2023-10-13T11:59:28;98291.42;;;26.50;60.06
56992;BME280;42885;49.754;18.636;2023-10-13T12:01:59;98292.67;;;26.26;61.03
56992;BME280;42885;49.754;18.636;2023-10-13T12:04:47;98288.73;;;26.50;63.25
56992;BME280;42885;49.754;18.636;2023-10-13T12:07:22;98283.70;;;26.19;62.17
56992;BME280;42885;49.754;18.636;2023-10-13T12:10:11;98288.38;;;26.60;60.88
56992;BME280;42885;49.754;18.636;2023-10-13T12:13:00;98281.97;;;27.07;57.98
56992;BME280;42885;49.754;18.636;2023-10-13T12:15:39;98271.34;;;27.79;56.09
56992;BME280;42885;49.754;18.636;2023-10-13T12:18:20;98270.66;;;28.42;55.15
56992;BME280;42885;49.754;18.636;2023-10-13T12:20:53;98274.79;;;28.17;55.93
56992;BME280;42885;49.754;18.636;2023-10-13T12:23:23;98272.52;;;27.94;54.38
56992;BME280;42885;49.754;18.636;2023-10-13T12:25:55;98282.98;;;28.34;52.27
56992;BME280;42885;49.754;18.636;2023-10-13T12:28:33;98279.03;;;28.43;56.29
56992;BME280;42885;49.754;18.636;2023-10-13T12:31:06;98268.06;;;27.97;54.54
56992;BME280;42885;49.754;18.636;2023-10-13T12:33:38;98280.88;;;29.35;50.75
56992;BME280;42885;49.754;18.636;2023-10-13T12:36:11;98271.22;;;30.08;47.92
56992;BME280;42885;49.754;18.636;2023-10-13T12:38:46;98274.67;;;31.13;46.09
56992;BME280;42885;49.754;18.636;2023-10-13T12:41:20;98274.41;;;30.58;45.29
56992;BME280;42885;49.754;18.636;2023-10-13T12:44:08;98282.10;;;28.67;50.52
56992;BME280;42885;49.754;18.636;2023-10-13T12:46:57;98285.01;;;28.85;51.37
56992;BME280;42885;49.754;18.636;2023-10-13T12:49:46;98285.03;;;29.31;49.04
56992;BME280;42885;49.754;18.636;2023-10-13T12:52:18;98283.44;;;27.66;52.39
56992;BME280;42885;49.754;18.636;2023-10-13T12:54:49;98282.58;;;27.34;55.62
56992;BME280;42885;49.754;18.636;2023-10-13T12:57:28;98272.17;;;26.07;60.46
56992;BME280;42885;49.754;18.636;2023-10-13T13:00:00;98272.17;;;26.07;60.46
56992;BME280;42885;49.754;18.636;2023-10-13T13:02:32;98271.32;;;26.18;60.68
56992;BME280;42885;49.754;18.636;2023-10-13T13:05:04;98266.56;;;26.24;60.60
56992;BME280;42885;49.754;18.636;2023-10-13T13:07:40;98262.77;;;26.40;62.19
56992;BME280;42885;49.754;18.636;2023-10-13T13:10:15;98258.45;;;26.28;64.88
56992;BME280;42885;49.754;18.636;2023-10-13T13:12:46;98248.99;;;26.50;62.53
56992;BME280;42885;49.754;18.636;2023-10-13T13:15:17;98252.67;;;26.60;60.92
56992;BME280;42885;49.754;18.636;2023-10-13T13:17:49;98253.59;;;26.28;61.54
56992;BME280;42885;49.754;18.636;2023-10-13T13:20:20;98252.69;;;26.84;62.47
56992;BME280;42885;49.754;18.636;2023-10-13T13:22:58;98259.70;;;26.10;67.36
56992;BME280;42885;49.754;18.636;2023-10-13T13:25:31;98251.66;;;25.82;65.61
56992;BME280;42885;49.754;18.636;2023-10-13T13:28:02;98249.47;;;26.03;66.98
56992;BME280;42885;49.754;18.636;2023-10-13T13:30:35;98253.77;;;25.87;67.64
56992;BME280;42885;49.754;18.636;2023-10-13T13:33:07;98252.73;;;25.77;69.58